createdAt,value
2019-01-23T00:01:52.052Z,71.53
2019-01-23T00:04:22.778Z,72.65
2019-01-23T00:06:53.547Z,75.32
2019-01-23T00:09:24.239Z,75.60
2019-01-23T00:11:55.003Z,78.55
2019-01-23T00:14:25.616Z,73.80
2019-01-23T00:16:56.382Z,68.78
2019-01-23T00:19:27.136Z,71.05
2019-01-23T00:21:57.961Z,66.50
2019-01-23T00:24:28.830Z,72.58
2019-01-23T00:27:00.430Z,80.17
2019-01-23T00:29:49.524Z,72.87
2019-01-23T00:32:20.366Z,73.33
2019-01-23T00:34:51.044Z,72.45
2019-01-23T00:37:21.643Z,74.30
2019-01-23T00:39:52.497Z,73.33
2019-01-23T00:42:23.478Z,75.15
2019-01-23T00:44:54.211Z,78.87
2019-01-23T00:47:24.855Z,75.10
2019-01-23T00:49:55.492Z,75.78
2019-01-23T00:52:26.167Z,76.95
2019-01-23T00:54:56.960Z,75.42
2019-01-23T00:57:27.913Z,69.20
2019-01-23T00:59:58.472Z,73.85
2019-01-23T01:02:29.245Z,70.78
2019-01-23T01:05:00.047Z,73.80
2019-01-23T01:07:30.646Z,73.95
2019-01-23T01:10:01.469Z,71.25
2019-01-23T01:12:32.060Z,79.97
2019-01-23T01:15:02.714Z,80.47
2019-01-23T01:17:33.402Z,76.42
2019-01-23T01:20:05.490Z,77.10
2019-01-23T01:22:36.219Z,81.55
2019-01-23T01:25:09.276Z,75.45
2019-01-23T01:27:40.090Z,81.50
2019-01-23T01:30:16.632Z,81.45
2019-01-23T01:32:47.356Z,79.22
2019-01-23T01:35:18.028Z,84.13
2019-01-23T01:37:48.730Z,82.75
2019-01-23T01:40:19.743Z,79.75
2019-01-23T01:42:50.492Z,77.20
2019-01-23T01:45:21.200Z,78.23
2019-01-23T01:47:51.905Z,83.60
2019-01-23T01:50:22.580Z,82.92
2019-01-23T01:52:53.141Z,81.63
2019-01-23T01:55:23.747Z,84.32
2019-01-23T01:57:57.464Z,83.33
2019-01-23T02:00:28.179Z,85.57
2019-01-23T02:02:58.877Z,82.53
2019-01-23T02:05:29.430Z,80.32
2019-01-23T02:08:00.069Z,77.22
2019-01-23T02:10:31.041Z,83.05
2019-01-23T02:13:01.599Z,84.32
2019-01-23T02:15:32.283Z,81.83
2019-01-23T02:18:03.622Z,87.15
2019-01-23T02:20:34.483Z,85.77
2019-01-23T02:23:05.304Z,86.00
2019-01-23T02:25:35.901Z,79.00
2019-01-23T02:28:06.626Z,83.10
2019-01-23T02:30:37.344Z,89.03
2019-01-23T02:33:08.192Z,82.85
2019-01-23T02:35:38.767Z,81.45
2019-01-23T02:38:09.356Z,84.57
2019-01-23T02:40:40.221Z,86.60
2019-01-23T02:43:10.823Z,85.28
2019-01-23T02:45:41.600Z,83.73
2019-01-23T02:48:12.213Z,81.72
2019-01-23T02:50:42.825Z,87.95
2019-01-23T02:53:13.513Z,86.00
2019-01-23T02:55:44.088Z,81.78
2019-01-23T02:58:14.714Z,83.17
2019-01-23T03:00:45.276Z,76.57
2019-01-23T03:03:15.851Z,83.67
2019-01-23T03:05:46.514Z,82.93
2019-01-23T03:08:17.394Z,87.47
2019-01-23T03:10:48.123Z,89.32
2019-01-23T03:13:18.665Z,81.67
2019-01-23T03:15:49.275Z,83.00
2019-01-23T03:18:19.955Z,84.58
2019-01-23T03:20:50.678Z,81.60
2019-01-23T03:23:21.245Z,85.87
2019-01-23T03:25:51.856Z,82.50
2019-01-23T03:28:22.459Z,84.92
2019-01-23T03:30:53.056Z,83.45
2019-01-23T03:33:23.685Z,88.80
2019-01-23T03:35:54.303Z,86.85
2019-01-23T03:38:24.823Z,88.00
2019-01-23T03:40:55.384Z,81.37
2019-01-23T03:43:26.011Z,92.08
2019-01-23T03:45:56.906Z,86.45
2019-01-23T03:48:27.612Z,84.58
2019-01-23T03:50:58.199Z,82.10
2019-01-23T03:53:28.834Z,83.57
2019-01-23T03:55:59.412Z,85.28
2019-01-23T03:58:30.199Z,84.83
2019-01-23T04:01:00.843Z,81.37
2019-01-23T04:03:31.564Z,85.00
2019-01-23T04:06:02.447Z,85.05
2019-01-23T04:08:35.530Z,83.95
2019-01-23T04:11:06.115Z,82.05
2019-01-23T04:13:36.831Z,84.83
2019-01-23T04:16:07.747Z,82.90
2019-01-23T04:18:38.655Z,80.35
2019-01-23T04:21:09.217Z,78.85
2019-01-23T04:23:39.787Z,81.53
2019-01-23T04:26:10.492Z,84.25
2019-01-23T04:28:41.065Z,89.32
2019-01-23T04:31:11.650Z,85.05
2019-01-23T04:33:42.378Z,86.30
2019-01-23T04:36:12.913Z,81.23
2019-01-23T04:38:43.491Z,82.72
2019-01-23T04:41:14.051Z,83.60
2019-01-23T04:43:44.973Z,85.12
2019-01-23T04:46:15.770Z,85.05
2019-01-23T04:48:46.374Z,85.35
2019-01-23T04:51:36.067Z,83.10
2019-01-23T04:54:07.219Z,81.20
2019-01-23T04:56:37.867Z,87.25
2019-01-23T04:59:08.437Z,82.12
2019-01-23T05:01:39.052Z,79.32
2019-01-23T05:04:09.947Z,87.55
2019-01-23T05:06:40.588Z,87.25
2019-01-23T05:09:11.261Z,85.63
2019-01-23T05:11:41.869Z,78.50
2019-01-23T05:14:12.539Z,82.72
2019-01-23T05:16:43.135Z,85.83
2019-01-23T05:19:13.752Z,86.30
2019-01-23T05:21:44.343Z,88.07
2019-01-23T05:24:15.085Z,81.67
2019-01-23T05:26:45.787Z,85.83
2019-01-23T05:29:16.360Z,82.50
2019-01-23T05:31:46.900Z,85.85
2019-01-23T05:34:17.587Z,84.55
2019-01-23T05:36:48.205Z,91.67
2019-01-23T05:39:18.821Z,86.28
2019-01-23T05:42:01.430Z,91.42
2019-01-23T05:44:32.042Z,87.37
2019-01-23T05:47:02.582Z,88.70
2019-01-23T05:49:33.163Z,90.77
2019-01-23T05:52:03.816Z,99.77
2019-01-23T05:54:34.510Z,86.57
2019-01-23T05:57:05.223Z,83.75
2019-01-23T05:59:36.099Z,86.67
2019-01-23T06:02:06.787Z,82.27
2019-01-23T06:04:37.492Z,86.37
2019-01-23T06:07:08.250Z,93.47
2019-01-23T06:09:38.876Z,84.50
2019-01-23T06:12:09.504Z,90.62
2019-01-23T06:14:40.251Z,77.05
2019-01-23T06:17:10.938Z,87.45
2019-01-23T06:19:41.535Z,78.33
2019-01-23T06:22:12.106Z,90.00
2019-01-23T06:24:42.664Z,83.47
2019-01-23T06:27:13.267Z,82.05
2019-01-23T06:29:43.831Z,80.90
2019-01-23T06:32:14.619Z,82.47
2019-01-23T06:34:45.251Z,87.35
2019-01-23T06:37:15.892Z,88.07
2019-01-23T06:39:46.842Z,87.25
2019-01-23T06:42:17.542Z,85.80
2019-01-23T06:44:48.145Z,84.85
2019-01-23T06:47:18.727Z,82.73
2019-01-23T06:49:49.415Z,84.37
2019-01-23T06:52:20.068Z,89.00
2019-01-23T06:54:50.685Z,81.03
2019-01-23T06:57:21.378Z,79.62
2019-01-23T06:59:52.313Z,84.55
2019-01-23T07:02:22.925Z,83.20
2019-01-23T07:04:53.616Z,86.40
2019-01-23T07:07:29.218Z,76.53
2019-01-23T07:09:59.877Z,82.67
2019-01-23T07:12:30.619Z,87.82
2019-01-23T07:15:02.807Z,84.33
2019-01-23T07:17:33.423Z,77.35
2019-01-23T07:20:05.395Z,85.67
2019-01-23T07:22:36.000Z,82.30
2019-01-23T07:25:07.904Z,82.75
2019-01-23T07:27:38.463Z,81.25
2019-01-23T07:30:13.548Z,85.15
2019-01-23T07:32:44.143Z,81.50
2019-01-23T07:35:14.688Z,86.65
2019-01-23T07:37:45.258Z,85.90
2019-01-23T07:40:15.980Z,79.73
2019-01-23T07:42:46.549Z,81.30
2019-01-23T07:45:18.054Z,87.10
2019-01-23T07:47:48.696Z,83.62
2019-01-23T07:50:19.429Z,85.28
2019-01-23T07:52:50.005Z,85.90
2019-01-23T07:55:20.795Z,84.80
2019-01-23T07:57:51.451Z,87.62
2019-01-23T08:00:23.496Z,88.78
2019-01-23T08:02:54.498Z,79.40
2019-01-23T08:05:27.779Z,85.17
2019-01-23T08:07:58.364Z,82.60
2019-01-23T08:10:28.915Z,82.25
2019-01-23T08:12:59.747Z,80.70
2019-01-23T08:15:32.394Z,76.90
2019-01-23T08:18:03.050Z,69.72
2019-01-23T08:20:33.779Z,75.50
2019-01-23T08:23:04.519Z,68.05
2019-01-23T08:25:35.331Z,70.10
2019-01-23T08:28:06.029Z,64.67
2019-01-23T08:30:38.870Z,66.15
2019-01-23T08:33:09.059Z,68.12
2019-01-23T08:35:39.645Z,68.55
2019-01-23T08:38:10.324Z,68.70
2019-01-23T08:40:40.948Z,68.97
2019-01-23T08:43:11.638Z,67.47
2019-01-23T08:45:42.307Z,60.45
2019-01-23T08:48:12.881Z,65.87
2019-01-23T08:50:44.934Z,73.28
2019-01-23T08:53:15.595Z,66.65
2019-01-23T08:55:53.211Z,64.95
2019-01-23T08:58:18.695Z,67.50
2019-01-23T09:00:49.433Z,65.57
2019-01-23T09:03:20.169Z,68.40
2019-01-23T09:05:50.842Z,62.20
2019-01-23T09:08:21.649Z,62.70
2019-01-23T09:10:52.320Z,57.47
2019-01-23T09:13:22.999Z,60.20
2019-01-23T09:15:53.584Z,64.87
2019-01-23T09:18:24.141Z,71.40
2019-01-23T09:28:23.311Z,55.83
2019-01-23T09:31:10.617Z,58.30
2019-01-23T09:34:21.499Z,61.80
2019-01-23T09:37:31.502Z,66.53
2019-01-23T09:40:42.563Z,55.43
2019-01-23T09:43:37.679Z,60.13
2019-01-23T09:46:27.731Z,55.83
2019-01-23T09:49:26.321Z,56.60
2019-01-23T09:52:32.398Z,53.03
2019-01-23T09:55:03.017Z,55.87
2019-01-23T09:57:36.333Z,50.10
2019-01-23T10:00:11.453Z,45.77
2019-01-23T10:02:42.079Z,57.27
2019-01-23T10:05:12.751Z,57.90
2019-01-23T10:07:43.569Z,56.93
2019-01-23T10:10:16.178Z,55.27
2019-01-23T10:12:46.868Z,56.47
2019-01-23T10:15:24.498Z,63.53
2019-01-23T10:17:55.084Z,54.57
2019-01-23T10:20:25.671Z,54.90
2019-01-23T10:22:56.292Z,59.63
2019-01-23T12:15:24.731Z,81.50
2019-01-23T12:17:55.482Z,80.83
2019-01-23T12:20:26.183Z,84.58
2019-01-23T12:22:56.916Z,72.03
2019-01-23T12:25:27.516Z,73.90
2019-01-23T12:30:32.584Z,67.70
2019-01-23T12:33:03.741Z,67.13
2019-01-23T12:38:04.016Z,75.65
2019-01-23T12:40:34.667Z,73.40
2019-01-23T12:43:05.385Z,76.77
2019-01-23T12:48:05.683Z,95.67
2019-01-23T12:50:36.324Z,69.53
2019-01-23T12:53:06.962Z,73.23
2019-01-23T12:55:37.591Z,69.50
2019-01-23T12:58:08.233Z,66.37
2019-01-23T13:00:38.940Z,74.60
2019-01-23T13:03:09.911Z,68.10
2019-01-23T13:05:40.665Z,66.77
2019-01-23T13:08:11.239Z,64.53
2019-01-23T13:30:38.331Z,78.22
2019-01-23T13:33:08.872Z,67.47
2019-01-23T13:35:40.343Z,75.20
2019-01-23T13:38:14.215Z,71.77
2019-01-23T13:40:44.910Z,77.23
2019-01-23T13:43:15.472Z,71.87
2019-01-23T13:53:14.741Z,73.87
2019-01-23T13:55:45.325Z,76.28
2019-01-23T13:58:16.362Z,77.25
2019-01-23T14:00:47.020Z,74.10
2019-01-23T14:03:17.671Z,80.40
2019-01-23T14:08:17.877Z,73.67
2019-01-23T14:10:48.450Z,78.63
2019-01-23T14:13:19.055Z,70.23
2019-01-23T14:15:49.808Z,80.97
2019-01-23T14:18:20.465Z,82.03
2019-01-23T14:20:51.243Z,70.73
2019-01-23T14:23:22.106Z,72.33
2019-01-23T14:25:52.667Z,80.43
2019-01-23T14:28:23.341Z,83.93
2019-01-23T14:30:53.908Z,81.27
2019-01-23T14:33:24.608Z,93.10
2019-01-23T14:35:55.279Z,89.07
2019-01-23T14:38:25.925Z,95.40
2019-01-23T14:40:56.487Z,107.78
2019-01-23T14:43:27.223Z,99.62
2019-01-23T14:45:58.165Z,102.35
2019-01-23T14:48:28.751Z,101.47
2019-01-23T14:50:59.512Z,117.33
2019-01-23T14:53:30.103Z,113.47
2019-01-23T14:56:00.758Z,112.47
2019-01-23T14:58:31.415Z,121.37
2019-01-23T15:01:02.682Z,129.40
2019-01-23T15:03:33.649Z,121.28
2019-01-23T15:06:04.458Z,129.30
2019-01-23T15:08:35.107Z,121.90
2019-01-23T15:11:05.646Z,130.43
2019-01-23T15:13:36.547Z,133.00
2019-01-23T15:16:07.282Z,125.82
2019-01-23T15:18:37.928Z,139.27
2019-01-23T15:21:08.597Z,139.47
2019-01-23T15:23:39.636Z,128.60
2019-01-23T15:26:10.325Z,139.90
2019-01-23T15:28:40.949Z,144.45
2019-01-23T15:31:11.660Z,133.60
2019-01-23T15:33:42.516Z,135.90
2019-01-23T15:36:13.186Z,138.00
2019-01-23T15:38:43.821Z,148.97
2019-01-23T15:41:14.824Z,155.27
2019-01-23T15:43:45.409Z,148.13
2019-01-23T15:46:16.101Z,139.15
2019-01-23T15:48:46.969Z,145.82
2019-01-23T15:51:21.305Z,134.20
2019-01-23T15:53:53.643Z,141.70
2019-01-23T15:56:25.952Z,144.10
2019-01-23T15:58:56.733Z,133.17
2019-01-23T16:01:31.612Z,148.13
2019-01-23T16:04:02.341Z,132.65
2019-01-23T16:06:33.246Z,136.90
2019-01-23T16:09:05.104Z,138.95
2019-01-23T16:11:35.771Z,137.37
2019-01-23T16:14:06.613Z,137.43
2019-01-23T16:16:37.226Z,137.45
2019-01-23T16:19:07.922Z,136.62
2019-01-23T16:21:45.434Z,133.95
2019-01-23T16:24:10.933Z,140.85
2019-01-23T16:26:41.711Z,143.35
2019-01-23T16:29:13.774Z,138.60
2019-01-23T16:31:45.180Z,135.05
2019-01-23T16:34:15.916Z,138.90
2019-01-23T16:36:46.652Z,135.35
2019-01-23T16:39:17.345Z,127.47
2019-01-23T16:41:48.052Z,137.40
2019-01-23T16:44:18.753Z,142.25
2019-01-23T16:46:49.570Z,130.82
2019-01-23T16:49:20.245Z,141.70
2019-01-23T16:51:51.480Z,123.82
2019-01-23T16:54:22.337Z,136.05
2019-01-23T16:56:53.121Z,137.57
2019-01-23T16:59:24.036Z,132.77
2019-01-23T17:01:54.815Z,130.45
2019-01-23T17:04:25.486Z,135.88
2019-01-23T17:06:56.047Z,135.70
2019-01-23T17:09:26.734Z,132.52
2019-01-23T17:11:57.784Z,119.87
2019-01-23T17:14:28.414Z,133.65
2019-01-23T17:16:59.103Z,130.27
2019-01-23T17:19:29.977Z,131.67
2019-01-23T17:22:00.683Z,132.80
2019-01-23T17:24:31.387Z,121.80
2019-01-23T17:27:02.347Z,125.80
2019-01-23T17:29:33.340Z,122.95
2019-01-23T17:32:04.253Z,126.55
2019-01-23T17:34:35.027Z,120.75
2019-01-23T17:37:23.630Z,122.70
2019-01-23T17:39:54.392Z,128.75
2019-01-23T17:42:25.264Z,118.10
2019-01-23T17:44:56.100Z,121.80
2019-01-23T17:47:31.522Z,127.00
2019-01-23T17:50:04.893Z,126.25
2019-01-23T17:52:36.526Z,130.03
2019-01-23T17:55:10.996Z,116.80
2019-01-23T17:57:41.563Z,123.07
2019-01-23T18:00:17.084Z,114.88
2019-01-23T18:02:52.652Z,118.95
2019-01-23T18:05:22.342Z,127.62
2019-01-23T18:07:55.885Z,121.05
2019-01-23T18:10:28.811Z,115.77
2019-01-23T18:13:03.952Z,118.00
2019-01-23T18:15:36.028Z,112.65
2019-01-23T18:18:07.254Z,125.07
2019-01-23T18:20:39.628Z,117.30
2019-01-23T18:23:13.305Z,118.65
2019-01-23T18:25:44.074Z,123.57
2019-01-23T18:28:15.964Z,124.12
2019-01-23T18:30:56.144Z,122.17
2019-01-23T18:33:37.618Z,115.00
2019-01-23T18:36:40.843Z,114.20
2019-01-23T18:39:19.677Z,106.20
2019-01-23T18:42:20.879Z,113.57
2019-01-23T18:45:14.164Z,108.85
2019-01-23T18:48:10.254Z,107.37
2019-01-23T18:51:09.436Z,108.55
2019-01-23T18:53:40.182Z,113.75
2019-01-23T18:56:10.861Z,111.55
2019-01-23T18:58:52.512Z,111.03
2019-01-23T19:01:23.509Z,114.28
2019-01-23T19:03:54.247Z,109.80
2019-01-23T19:06:25.070Z,108.97
2019-01-23T19:08:55.744Z,111.85
2019-01-23T19:11:27.040Z,115.80
2019-01-23T19:13:57.703Z,113.72
2019-01-23T19:16:28.372Z,114.00
2019-01-23T19:18:58.951Z,110.08
2019-01-23T19:21:29.772Z,113.15
2019-01-23T19:24:08.010Z,121.33
2019-01-23T19:26:40.459Z,119.28
2019-01-23T19:29:11.001Z,126.35
2019-01-23T19:31:41.645Z,121.72
2019-01-23T19:34:12.447Z,132.57
2019-01-23T19:36:43.254Z,124.45
2019-01-23T19:39:14.127Z,135.00
2019-01-23T19:41:44.952Z,133.12
2019-01-23T19:44:15.862Z,123.02
2019-01-23T19:46:47.802Z,131.47
2019-01-23T19:49:20.301Z,128.40
2019-01-23T19:51:51.015Z,127.80
2019-01-23T19:54:22.095Z,142.77
2019-01-23T19:56:53.373Z,135.95
2019-01-23T19:59:24.161Z,140.50
2019-01-23T20:01:55.657Z,138.77
2019-01-23T20:04:28.014Z,137.97
2019-01-23T20:07:00.577Z,143.70
2019-01-23T20:09:33.125Z,145.30
2019-01-23T20:12:04.536Z,136.97
2019-01-23T20:14:41.617Z,148.13
2019-01-23T20:17:16.649Z,156.78
2019-01-23T20:19:51.813Z,152.40
2019-01-23T20:22:23.056Z,152.17
2019-01-23T20:24:54.187Z,149.62
2019-01-23T20:27:29.661Z,154.03
2019-01-23T20:30:17.924Z,149.57
2019-01-23T20:32:52.812Z,152.70
2019-01-23T20:35:23.599Z,148.83
2019-01-23T20:37:54.415Z,148.38
2019-01-23T20:40:25.421Z,154.35
2019-01-23T20:42:59.534Z,156.43
2019-01-23T20:45:32.059Z,164.20
2019-01-23T20:48:10.414Z,157.23
2019-01-23T20:50:37.182Z,144.35
2019-01-23T20:53:08.464Z,165.70
2019-01-23T20:55:41.394Z,154.60
2019-01-23T20:58:12.740Z,164.60
2019-01-23T21:00:46.371Z,164.00
2019-01-23T21:03:16.999Z,160.90
2019-01-23T21:05:48.365Z,167.22
2019-01-23T21:08:24.733Z,166.30
2019-01-23T21:10:55.752Z,163.50
2019-01-23T21:13:29.863Z,160.35
2019-01-23T21:16:04.330Z,168.47
2019-01-23T21:18:49.349Z,169.60
2019-01-23T21:21:25.665Z,164.18
2019-01-23T21:23:56.627Z,164.05
2019-01-23T21:26:35.119Z,172.85
2019-01-23T21:29:37.989Z,170.50
2019-01-23T21:32:19.042Z,164.93
2019-01-23T21:35:03.666Z,179.03
2019-01-23T21:37:39.431Z,173.47
2019-01-23T21:40:15.451Z,175.32
2019-01-23T21:42:58.817Z,172.32
2019-01-23T21:45:39.061Z,173.82
2019-01-23T21:48:15.498Z,184.93
2019-01-23T21:50:53.846Z,179.07
2019-01-23T21:53:27.582Z,177.90
2019-01-23T21:56:07.877Z,167.95
2019-01-23T21:58:43.985Z,178.02
2019-01-23T22:01:21.305Z,185.83
2019-01-23T22:03:53.678Z,182.62
2019-01-23T22:06:25.832Z,173.40
2019-01-23T22:08:57.891Z,183.82
2019-01-23T22:11:31.062Z,186.25
2019-01-23T22:14:18.207Z,204.18
2019-01-23T22:16:43.359Z,172.45
2019-01-23T22:19:23.512Z,190.73
2019-01-23T22:21:49.835Z,192.60
2019-01-23T22:24:27.089Z,186.95
2019-01-23T22:27:03.873Z,195.82
2019-01-23T22:29:59.916Z,206.77
2019-01-23T22:32:59.102Z,214.97
2019-01-23T22:35:28.047Z,211.97
2019-01-23T22:38:05.819Z,203.80
2019-01-23T22:41:21.755Z,203.18
2019-01-23T22:43:55.156Z,212.17
2019-01-23T22:46:32.132Z,206.63
2019-01-23T22:49:19.163Z,200.53
2019-01-23T22:51:54.848Z,210.83
2019-01-23T22:54:31.944Z,223.97
2019-01-23T22:57:23.139Z,220.37
2019-01-23T22:59:55.803Z,211.70
2019-01-23T23:02:32.481Z,212.35
2019-01-23T23:05:15.013Z,213.15
2019-01-23T23:07:52.258Z,219.07
2019-01-23T23:10:26.779Z,228.33
2019-01-23T23:13:01.961Z,220.80
2019-01-23T23:15:56.436Z,235.38
2019-01-23T23:19:02.857Z,223.53
2019-01-23T23:21:55.602Z,233.85
2019-01-23T23:24:29.144Z,220.37
2019-01-23T23:28:00.906Z,231.17
2019-01-23T23:30:55.446Z,229.57
2019-01-23T23:33:57.575Z,215.57
2019-01-23T23:36:31.228Z,202.40
2019-01-23T23:39:06.584Z,209.72
2019-01-23T23:41:40.333Z,214.95
2019-01-23T23:44:20.883Z,219.03
2019-01-23T23:46:51.695Z,194.85
2019-01-23T23:49:22.281Z,202.05
2019-01-23T23:51:52.943Z,198.25
2019-01-23T23:54:23.671Z,174.68
2019-01-23T23:56:54.184Z,174.32
2019-01-23T23:59:24.935Z,169.75
